Kelham Island, United Kingdom
Current Conditions -  °F | °C
As of 11:20 AM on Friday 24 Oct 2014 (Local Time) from EGCN Reporting Station
Overcast Overcast  
Wind Chill: 55°   Ceiling: 2000
Heat Index: 55°   Visibility: 6mi
Dew Point: 54°   Wind: 1mph
Humidity: 94%   Direction: NA
Pressure: 29.91"   Gusts: NA
Location:  53.38°N, 1.47°W
Report Text: EGCN 241020Z VRB01KT 9999 FEW010 OVC020 13/12 Q1013
Loading
Personal Weather Stations






























Interactive Weather Map
Tropical Storm Tracking
New forecast layout! Learn more

10-Day Weather Forecast

Advertisements
Track Severe Weather on mobile